sensor_id;sensor_type;location;lat;lon;timestamp;temperature;humidity
40696;DHT22;40425;51.102;17.208;2023-01-28T00:04:43;1.80;99.90
40696;DHT22;40425;51.102;17.208;2023-01-28T00:09:44;1.80;99.90
40696;DHT22;40425;51.102;17.208;2023-01-28T00:14:45;1.80;99.90
40696;DHT22;40425;51.102;17.208;2023-01-28T00:19:47;1.80;99.90
40696;DHT22;40425;51.102;17.208;2023-01-28T00:24:48;1.70;99.90
40696;DHT22;40425;51.102;17.208;2023-01-28T00:29:48;1.70;99.90
40696;DHT22;40425;51.102;17.208;2023-01-28T00:34:49;1.70;99.90
40696;DHT22;40425;51.102;17.208;2023-01-28T00:39:50;1.60;99.90
40696;DHT22;40425;51.102;17.208;2023-01-28T00:44:51;1.60;99.90
40696;DHT22;40425;51.102;17.208;2023-01-28T00:49:52;1.50;99.90
40696;DHT22;40425;51.102;17.208;2023-01-28T00:54:53;1.50;99.90
40696;DHT22;40425;51.102;17.208;2023-01-28T00:59:54;1.60;99.90
40696;DHT22;40425;51.102;17.208;2023-01-28T01:04:54;1.60;99.90
40696;DHT22;40425;51.102;17.208;2023-01-28T01:09:59;1.60;99.90
40696;DHT22;40425;51.102;17.208;2023-01-28T01:15:01;1.80;99.90
40696;DHT22;40425;51.102;17.208;2023-01-28T01:20:03;1.70;99.90
40696;DHT22;40425;51.102;17.208;2023-01-28T01:25:05;1.60;99.90
40696;DHT22;40425;51.102;17.208;2023-01-28T01:30:06;1.60;99.90
40696;DHT22;40425;51.102;17.208;2023-01-28T01:35:09;1.60;99.90
40696;DHT22;40425;51.102;17.208;2023-01-28T01:40:11;1.60;99.90
40696;DHT22;40425;51.102;17.208;2023-01-28T01:45:12;1.60;99.90
40696;DHT22;40425;51.102;17.208;2023-01-28T01:50:30;1.60;99.90
40696;DHT22;40425;51.102;17.208;2023-01-28T01:55:34;1.60;99.90
40696;DHT22;40425;51.102;17.208;2023-01-28T02:00:37;1.50;99.90
40696;DHT22;40425;51.102;17.208;2023-01-28T02:05:39;1.30;99.90
40696;DHT22;40425;51.102;17.208;2023-01-28T02:10:40;1.30;99.90
40696;DHT22;40425;51.102;17.208;2023-01-28T02:15:41;1.20;99.90
40696;DHT22;40425;51.102;17.208;2023-01-28T02:31:43;1.10;99.90
40696;DHT22;40425;51.102;17.208;2023-01-28T02:37:02;1.10;99.90
40696;DHT22;40425;51.102;17.208;2023-01-28T02:42:13;1.10;99.90
40696;DHT22;40425;51.102;17.208;2023-01-28T02:47:15;1.10;99.90
40696;DHT22;40425;51.102;17.208;2023-01-28T02:53:06;1.00;99.90
40696;DHT22;40425;51.102;17.208;2023-01-28T02:58:36;1.00;99.90
40696;DHT22;40425;51.102;17.208;2023-01-28T03:09:00;1.40;99.90
40696;DHT22;40425;51.102;17.208;2023-01-28T03:14:20;1.00;99.90
40696;DHT22;40425;51.102;17.208;2023-01-28T03:19:40;1.00;99.90
40696;DHT22;40425;51.102;17.208;2023-01-28T03:25:01;1.00;99.90
40696;DHT22;40425;51.102;17.208;2023-01-28T03:30:37;1.00;99.90
40696;DHT22;40425;51.102;17.208;2023-01-28T03:35:58;1.00;99.90
40696;DHT22;40425;51.102;17.208;2023-01-28T03:41:23;1.00;99.90
40696;DHT22;40425;51.102;17.208;2023-01-28T03:46:24;1.00;99.90
40696;DHT22;40425;51.102;17.208;2023-01-28T03:51:25;1.00;99.90
40696;DHT22;40425;51.102;17.208;2023-01-28T03:56:26;1.00;99.90
40696;DHT22;40425;51.102;17.208;2023-01-28T04:01:28;0.90;99.90
40696;DHT22;40425;51.102;17.208;2023-01-28T04:06:28;0.90;99.90
40696;DHT22;40425;51.102;17.208;2023-01-28T04:11:30;0.90;99.90
40696;DHT22;40425;51.102;17.208;2023-01-28T04:16:31;1.00;99.90
40696;DHT22;40425;51.102;17.208;2023-01-28T04:21:32;0.90;99.90
40696;DHT22;40425;51.102;17.208;2023-01-28T04:26:33;0.90;99.90
40696;DHT22;40425;51.102;17.208;2023-01-28T04:31:34;0.90;99.90
40696;DHT22;40425;51.102;17.208;2023-01-28T04:36:35;0.90;99.90
40696;DHT22;40425;51.102;17.208;2023-01-28T04:41:36;0.90;99.90
40696;DHT22;40425;51.102;17.208;2023-01-28T04:46:36;0.90;99.90
40696;DHT22;40425;51.102;17.208;2023-01-28T04:51:37;0.90;99.90
40696;DHT22;40425;51.102;17.208;2023-01-28T04:56:38;0.90;99.90
40696;DHT22;40425;51.102;17.208;2023-01-28T05:01:39;1.00;99.90
40696;DHT22;40425;51.102;17.208;2023-01-28T05:06:40;0.90;99.90
40696;DHT22;40425;51.102;17.208;2023-01-28T05:11:41;0.90;99.90
40696;DHT22;40425;51.102;17.208;2023-01-28T05:16:42;0.90;99.90
40696;DHT22;40425;51.102;17.208;2023-01-28T05:21:42;0.80;99.90
40696;DHT22;40425;51.102;17.208;2023-01-28T05:26:43;0.80;99.90
40696;DHT22;40425;51.102;17.208;2023-01-28T05:31:46;0.80;99.90
40696;DHT22;40425;51.102;17.208;2023-01-28T05:36:47;0.90;99.90
40696;DHT22;40425;51.102;17.208;2023-01-28T05:41:48;0.90;99.90
40696;DHT22;40425;51.102;17.208;2023-01-28T05:46:49;0.80;99.90
40696;DHT22;40425;51.102;17.208;2023-01-28T05:51:50;0.80;99.90
40696;DHT22;40425;51.102;17.208;2023-01-28T05:56:51;0.90;99.90
40696;DHT22;40425;51.102;17.208;2023-01-28T06:01:52;0.80;99.90
40696;DHT22;40425;51.102;17.208;2023-01-28T06:06:52;0.90;99.90
40696;DHT22;40425;51.102;17.208;2023-01-28T06:11:53;0.90;99.90
40696;DHT22;40425;51.102;17.208;2023-01-28T06:16:54;0.80;99.90
40696;DHT22;40425;51.102;17.208;2023-01-28T06:21:55;0.90;99.90
40696;DHT22;40425;51.102;17.208;2023-01-28T06:26:56;0.90;99.90
40696;DHT22;40425;51.102;17.208;2023-01-28T06:31:57;0.80;99.90
40696;DHT22;40425;51.102;17.208;2023-01-28T06:36:58;0.80;99.90
40696;DHT22;40425;51.102;17.208;2023-01-28T06:41:59;0.90;99.90
40696;DHT22;40425;51.102;17.208;2023-01-28T06:47:00;0.80;99.90
40696;DHT22;40425;51.102;17.208;2023-01-28T06:52:01;0.80;99.90
40696;DHT22;40425;51.102;17.208;2023-01-28T06:57:02;0.80;99.90
40696;DHT22;40425;51.102;17.208;2023-01-28T07:02:03;0.80;99.90
40696;DHT22;40425;51.102;17.208;2023-01-28T07:07:03;0.80;99.90
40696;DHT22;40425;51.102;17.208;2023-01-28T07:12:04;0.80;99.90
40696;DHT22;40425;51.102;17.208;2023-01-28T07:17:05;0.80;99.90
40696;DHT22;40425;51.102;17.208;2023-01-28T07:22:06;0.80;99.90
40696;DHT22;40425;51.102;17.208;2023-01-28T07:27:07;0.80;99.90
40696;DHT22;40425;51.102;17.208;2023-01-28T07:32:08;0.80;99.90
40696;DHT22;40425;51.102;17.208;2023-01-28T07:37:09;0.80;99.90
40696;DHT22;40425;51.102;17.208;2023-01-28T07:42:10;0.80;99.90
40696;DHT22;40425;51.102;17.208;2023-01-28T07:47:11;0.80;99.90
40696;DHT22;40425;51.102;17.208;2023-01-28T07:52:12;0.90;99.90
40696;DHT22;40425;51.102;17.208;2023-01-28T07:57:13;0.90;99.90
40696;DHT22;40425;51.102;17.208;2023-01-28T08:02:14;0.80;99.90
40696;DHT22;40425;51.102;17.208;2023-01-28T08:07:15;0.90;99.90
40696;DHT22;40425;51.102;17.208;2023-01-28T08:12:18;0.90;99.90
40696;DHT22;40425;51.102;17.208;2023-01-28T08:17:21;0.90;99.90
40696;DHT22;40425;51.102;17.208;2023-01-28T08:22:26;0.90;99.90
40696;DHT22;40425;51.102;17.208;2023-01-28T08:27:27;0.80;99.90
40696;DHT22;40425;51.102;17.208;2023-01-28T08:32:28;0.80;99.90
40696;DHT22;40425;51.102;17.208;2023-01-28T08:37:30;0.80;99.90
40696;DHT22;40425;51.102;17.208;2023-01-28T08:42:31;0.80;99.90
40696;DHT22;40425;51.102;17.208;2023-01-28T08:47:32;0.80;99.90
40696;DHT22;40425;51.102;17.208;2023-01-28T08:52:33;0.80;99.90
40696;DHT22;40425;51.102;17.208;2023-01-28T08:57:34;0.70;99.90
40696;DHT22;40425;51.102;17.208;2023-01-28T09:02:36;0.80;99.90
40696;DHT22;40425;51.102;17.208;2023-01-28T09:07:38;0.80;99.90
40696;DHT22;40425;51.102;17.208;2023-01-28T09:12:38;0.80;99.90
40696;DHT22;40425;51.102;17.208;2023-01-28T09:17:39;0.80;99.90
40696;DHT22;40425;51.102;17.208;2023-01-28T09:22:40;0.80;99.90
40696;DHT22;40425;51.102;17.208;2023-01-28T09:27:41;0.90;99.90
40696;DHT22;40425;51.102;17.208;2023-01-28T09:32:42;1.00;99.90
40696;DHT22;40425;51.102;17.208;2023-01-28T09:37:43;1.00;99.90
40696;DHT22;40425;51.102;17.208;2023-01-28T09:47:52;0.80;99.90
40696;DHT22;40425;51.102;17.208;2023-01-28T09:52:59;0.90;99.90
40696;DHT22;40425;51.102;17.208;2023-01-28T09:58:05;0.80;99.90
40696;DHT22;40425;51.102;17.208;2023-01-28T10:19:47;0.80;99.90
40696;DHT22;40425;51.102;17.208;2023-01-28T10:24:54;0.90;99.90
40696;DHT22;40425;51.102;17.208;2023-01-28T10:29:59;0.90;99.90
40696;DHT22;40425;51.102;17.208;2023-01-28T10:35:00;1.10;99.90
40696;DHT22;40425;51.102;17.208;2023-01-28T10:40:04;0.90;99.90
40696;DHT22;40425;51.102;17.208;2023-01-28T10:50:17;0.90;99.90
40696;DHT22;40425;51.102;17.208;2023-01-28T10:55:20;1.00;99.90
40696;DHT22;40425;51.102;17.208;2023-01-28T11:00:24;0.90;99.90
40696;DHT22;40425;51.102;17.208;2023-01-28T11:05:28;0.80;99.90
40696;DHT22;40425;51.102;17.208;2023-01-28T11:10:32;0.90;99.90
40696;DHT22;40425;51.102;17.208;2023-01-28T11:15:33;0.90;99.90
40696;DHT22;40425;51.102;17.208;2023-01-28T11:20:37;0.90;99.90
40696;DHT22;40425;51.102;17.208;2023-01-28T11:25:40;1.00;99.90
40696;DHT22;40425;51.102;17.208;2023-01-28T11:30:41;1.10;99.90
40696;DHT22;40425;51.102;17.208;2023-01-28T11:36:34;0.90;99.90
40696;DHT22;40425;51.102;17.208;2023-01-28T11:41:16;1.00;99.90
40696;DHT22;40425;51.102;17.208;2023-01-28T11:51:30;1.10;99.90
40696;DHT22;40425;51.102;17.208;2023-01-28T12:07:32;1.10;99.90
40696;DHT22;40425;51.102;17.208;2023-01-28T12:13:27;0.90;99.90
40696;DHT22;40425;51.102;17.208;2023-01-28T12:18:39;0.80;99.90
40696;DHT22;40425;51.102;17.208;2023-01-28T12:24:54;0.80;99.90
40696;DHT22;40425;51.102;17.208;2023-01-28T12:29:33;0.80;99.90
40696;DHT22;40425;51.102;17.208;2023-01-28T12:35:13;0.80;99.90
40696;DHT22;40425;51.102;17.208;2023-01-28T12:40:38;0.90;99.90
40696;DHT22;40425;51.102;17.208;2023-01-28T12:45:45;0.80;99.90
40696;DHT22;40425;51.102;17.208;2023-01-28T12:56:15;0.80;99.90
40696;DHT22;40425;51.102;17.208;2023-01-28T13:01:22;0.70;99.90
40696;DHT22;40425;51.102;17.208;2023-01-28T13:06:32;0.80;99.90
40696;DHT22;40425;51.102;17.208;2023-01-28T13:11:36;0.60;99.90
40696;DHT22;40425;51.102;17.208;2023-01-28T13:16:38;0.60;99.90
40696;DHT22;40425;51.102;17.208;2023-01-28T13:21:39;0.70;99.90
40696;DHT22;40425;51.102;17.208;2023-01-28T13:26:55;0.70;99.90
40696;DHT22;40425;51.102;17.208;2023-01-28T13:32:33;0.60;99.90
40696;DHT22;40425;51.102;17.208;2023-01-28T13:37:37;0.60;99.90
40696;DHT22;40425;51.102;17.208;2023-01-28T13:42:39;0.50;99.90
40696;DHT22;40425;51.102;17.208;2023-01-28T13:47:44;0.50;99.90
40696;DHT22;40425;51.102;17.208;2023-01-28T13:52:57;0.50;99.90
40696;DHT22;40425;51.102;17.208;2023-01-28T14:03:34;0.50;99.90
40696;DHT22;40425;51.102;17.208;2023-01-28T14:09:19;0.50;99.90
40696;DHT22;40425;51.102;17.208;2023-01-28T14:14:31;0.40;99.90
40696;DHT22;40425;51.102;17.208;2023-01-28T14:19:37;0.50;99.90
40696;DHT22;40425;51.102;17.208;2023-01-28T14:24:38;0.40;99.90
40696;DHT22;40425;51.102;17.208;2023-01-28T14:30:03;0.60;99.90
40696;DHT22;40425;51.102;17.208;2023-01-28T14:35:08;0.60;99.90
40696;DHT22;40425;51.102;17.208;2023-01-28T14:40:13;0.60;99.90
40696;DHT22;40425;51.102;17.208;2023-01-28T14:45:24;0.50;99.90
40696;DHT22;40425;51.102;17.208;2023-01-28T14:56:14;0.40;99.90
40696;DHT22;40425;51.102;17.208;2023-01-28T15:01:21;0.30;99.90
40696;DHT22;40425;51.102;17.208;2023-01-28T15:06:24;0.20;99.90
40696;DHT22;40425;51.102;17.208;2023-01-28T15:11:29;0.20;99.90
40696;DHT22;40425;51.102;17.208;2023-01-28T15:16:30;0.10;99.90
40696;DHT22;40425;51.102;17.208;2023-01-28T15:21:31;0.10;99.90
40696;DHT22;40425;51.102;17.208;2023-01-28T15:26:33;0.10;99.90
40696;DHT22;40425;51.102;17.208;2023-01-28T15:31:35;0.10;99.90
40696;DHT22;40425;51.102;17.208;2023-01-28T15:36:39;0.10;99.90
40696;DHT22;40425;51.102;17.208;2023-01-28T15:41:43;0.10;99.90
40696;DHT22;40425;51.102;17.208;2023-01-28T15:46:45;0.20;99.90
40696;DHT22;40425;51.102;17.208;2023-01-28T15:51:49;0.10;99.90
40696;DHT22;40425;51.102;17.208;2023-01-28T15:56:50;0.00;99.90
40696;DHT22;40425;51.102;17.208;2023-01-28T16:02:18;-0.10;99.90
40696;DHT22;40425;51.102;17.208;2023-01-28T16:07:19;0.00;99.90
40696;DHT22;40425;51.102;17.208;2023-01-28T16:12:21;-0.10;99.90
40696;DHT22;40425;51.102;17.208;2023-01-28T16:17:28;-0.10;99.90
40696;DHT22;40425;51.102;17.208;2023-01-28T16:22:34;-0.10;99.90
40696;DHT22;40425;51.102;17.208;2023-01-28T16:27:35;-0.10;99.90
40696;DHT22;40425;51.102;17.208;2023-01-28T16:32:38;0.00;99.90
40696;DHT22;40425;51.102;17.208;2023-01-28T16:37:42;-0.10;99.90
40696;DHT22;40425;51.102;17.208;2023-01-28T16:42:44;-0.20;99.90
40696;DHT22;40425;51.102;17.208;2023-01-28T16:47:45;0.00;99.90
40696;DHT22;40425;51.102;17.208;2023-01-28T16:52:48;-0.10;99.90
40696;DHT22;40425;51.102;17.208;2023-01-28T16:57:55;-0.20;99.90
40696;DHT22;40425;51.102;17.208;2023-01-28T17:02:56;-0.10;99.90
40696;DHT22;40425;51.102;17.208;2023-01-28T17:07:57;0.00;99.90
40696;DHT22;40425;51.102;17.208;2023-01-28T17:12:58;-0.10;99.90
40696;DHT22;40425;51.102;17.208;2023-01-28T17:17:59;0.00;99.90
40696;DHT22;40425;51.102;17.208;2023-01-28T17:23:00;-0.10;99.90
40696;DHT22;40425;51.102;17.208;2023-01-28T17:28:01;0.10;99.90
40696;DHT22;40425;51.102;17.208;2023-01-28T17:33:02;0.20;99.90
40696;DHT22;40425;51.102;17.208;2023-01-28T17:38:04;0.10;99.90
40696;DHT22;40425;51.102;17.208;2023-01-28T17:43:05;0.20;99.90
40696;DHT22;40425;51.102;17.208;2023-01-28T17:48:08;0.00;99.90
40696;DHT22;40425;51.102;17.208;2023-01-28T17:53:10;0.10;99.90
40696;DHT22;40425;51.102;17.208;2023-01-28T17:58:11;0.00;99.90
40696;DHT22;40425;51.102;17.208;2023-01-28T18:03:12;-0.10;99.90
40696;DHT22;40425;51.102;17.208;2023-01-28T18:08:13;-0.20;99.90
40696;DHT22;40425;51.102;17.208;2023-01-28T18:13:14;-0.20;99.90
40696;DHT22;40425;51.102;17.208;2023-01-28T18:18:16;-0.30;99.90
40696;DHT22;40425;51.102;17.208;2023-01-28T18:23:19;-0.30;99.90
40696;DHT22;40425;51.102;17.208;2023-01-28T18:28:20;-0.40;99.90
40696;DHT22;40425;51.102;17.208;2023-01-28T18:33:22;-0.40;99.90
40696;DHT22;40425;51.102;17.208;2023-01-28T18:38:23;-0.50;99.90
40696;DHT22;40425;51.102;17.208;2023-01-28T18:43:25;-0.40;99.90
40696;DHT22;40425;51.102;17.208;2023-01-28T18:48:29;-0.30;99.90
40696;DHT22;40425;51.102;17.208;2023-01-28T18:53:30;-0.30;99.90
40696;DHT22;40425;51.102;17.208;2023-01-28T19:03:31;-0.20;99.90
40696;DHT22;40425;51.102;17.208;2023-01-28T19:08:34;-0.20;99.90
40696;DHT22;40425;51.102;17.208;2023-01-28T19:13:35;-0.20;99.90
40696;DHT22;40425;51.102;17.208;2023-01-28T19:18:36;-0.20;99.90
40696;DHT22;40425;51.102;17.208;2023-01-28T19:23:38;-0.20;99.90
40696;DHT22;40425;51.102;17.208;2023-01-28T19:28:39;-0.10;99.90
40696;DHT22;40425;51.102;17.208;2023-01-28T19:33:40;-0.10;99.90
40696;DHT22;40425;51.102;17.208;2023-01-28T19:38:42;-0.20;99.90
40696;DHT22;40425;51.102;17.208;2023-01-28T19:43:43;-0.20;99.90
40696;DHT22;40425;51.102;17.208;2023-01-28T19:48:46;-0.20;99.90
40696;DHT22;40425;51.102;17.208;2023-01-28T19:53:50;-0.20;99.90
40696;DHT22;40425;51.102;17.208;2023-01-28T19:58:53;-0.20;99.90
40696;DHT22;40425;51.102;17.208;2023-01-28T20:03:57;-0.30;99.90
40696;DHT22;40425;51.102;17.208;2023-01-28T20:09:05;-0.20;99.90
40696;DHT22;40425;51.102;17.208;2023-01-28T20:14:10;-0.10;99.90
40696;DHT22;40425;51.102;17.208;2023-01-28T20:19:16;0.00;99.90
40696;DHT22;40425;51.102;17.208;2023-01-28T20:24:18;0.00;99.90
40696;DHT22;40425;51.102;17.208;2023-01-28T20:29:22;0.10;99.90
40696;DHT22;40425;51.102;17.208;2023-01-28T20:34:24;0.00;99.90
40696;DHT22;40425;51.102;17.208;2023-01-28T20:39:25;0.00;99.90
40696;DHT22;40425;51.102;17.208;2023-01-28T20:44:27;0.10;99.90
40696;DHT22;40425;51.102;17.208;2023-01-28T20:49:32;0.10;99.90
40696;DHT22;40425;51.102;17.208;2023-01-28T20:54:33;0.10;99.90
40696;DHT22;40425;51.102;17.208;2023-01-28T20:59:35;0.10;99.90
40696;DHT22;40425;51.102;17.208;2023-01-28T21:04:36;0.10;99.90
40696;DHT22;40425;51.102;17.208;2023-01-28T21:09:38;0.30;99.90
40696;DHT22;40425;51.102;17.208;2023-01-28T21:14:40;0.30;99.90
40696;DHT22;40425;51.102;17.208;2023-01-28T21:19:45;0.30;99.90
40696;DHT22;40425;51.102;17.208;2023-01-28T21:24:46;0.30;99.90
40696;DHT22;40425;51.102;17.208;2023-01-28T21:29:51;0.40;99.90
40696;DHT22;40425;51.102;17.208;2023-01-28T21:34:52;0.30;99.90
40696;DHT22;40425;51.102;17.208;2023-01-28T21:39:53;0.30;99.90
40696;DHT22;40425;51.102;17.208;2023-01-28T21:44:54;0.40;99.90
40696;DHT22;40425;51.102;17.208;2023-01-28T21:49:56;0.40;99.90
40696;DHT22;40425;51.102;17.208;2023-01-28T21:54:57;0.70;99.90
40696;DHT22;40425;51.102;17.208;2023-01-28T21:59:58;0.80;99.90
40696;DHT22;40425;51.102;17.208;2023-01-28T22:04:59;0.90;99.90
40696;DHT22;40425;51.102;17.208;2023-01-28T22:10:00;0.90;99.90
40696;DHT22;40425;51.102;17.208;2023-01-28T22:15:01;1.00;99.90
40696;DHT22;40425;51.102;17.208;2023-01-28T22:20:02;1.00;99.90
40696;DHT22;40425;51.102;17.208;2023-01-28T22:25:03;1.00;99.90
40696;DHT22;40425;51.102;17.208;2023-01-28T22:30:05;1.00;99.90
40696;DHT22;40425;51.102;17.208;2023-01-28T22:35:06;1.00;99.90
40696;DHT22;40425;51.102;17.208;2023-01-28T22:40:07;0.90;99.90
40696;DHT22;40425;51.102;17.208;2023-01-28T22:45:09;1.00;99.90
40696;DHT22;40425;51.102;17.208;2023-01-28T22:50:10;1.20;99.90
40696;DHT22;40425;51.102;17.208;2023-01-28T22:55:11;1.20;99.90
40696;DHT22;40425;51.102;17.208;2023-01-28T23:00:14;1.30;99.90
40696;DHT22;40425;51.102;17.208;2023-01-28T23:05:15;1.30;99.90
40696;DHT22;40425;51.102;17.208;2023-01-28T23:10:16;1.20;99.90
40696;DHT22;40425;51.102;17.208;2023-01-28T23:15:17;1.10;99.90
40696;DHT22;40425;51.102;17.208;2023-01-28T23:20:38;0.90;99.90
40696;DHT22;40425;51.102;17.208;2023-01-28T23:25:58;0.80;99.90
40696;DHT22;40425;51.102;17.208;2023-01-28T23:30:58;0.80;99.90
40696;DHT22;40425;51.102;17.208;2023-01-28T23:36:00;0.60;99.90
40696;DHT22;40425;51.102;17.208;2023-01-28T23:41:01;0.70;99.90
40696;DHT22;40425;51.102;17.208;2023-01-28T23:46:02;0.60;99.90
40696;DHT22;40425;51.102;17.208;2023-01-28T23:51:02;0.50;99.90
40696;DHT22;40425;51.102;17.208;2023-01-28T23:56:06;0.20;99.90
